sensor_id;sensor_type;location;lat;lon;timestamp;temperature;humidity
1888;DHT22;944;51.574;6.980;2023-07-16T00:00:28;18.40;1.00
1888;DHT22;944;51.574;6.980;2023-07-16T00:02:59;18.40;99.90
1888;DHT22;944;51.574;6.980;2023-07-16T00:05:38;18.40;99.90
1888;DHT22;944;51.574;6.980;2023-07-16T00:08:25;18.40;58.30
1888;DHT22;944;51.574;6.980;2023-07-16T00:11:15;18.40;1.00
1888;DHT22;944;51.574;6.980;2023-07-16T00:14:13;18.40;63.60
1888;DHT22;944;51.574;6.980;2023-07-16T00:17:01;18.30;99.90
1888;DHT22;944;51.574;6.980;2023-07-16T00:20:21;18.30;1.00
1888;DHT22;944;51.574;6.980;2023-07-16T00:22:55;18.20;1.00
1888;DHT22;944;51.574;6.980;2023-07-16T00:25:25;18.20;99.90
1888;DHT22;944;51.574;6.980;2023-07-16T00:28:30;18.20;99.90
1888;DHT22;944;51.574;6.980;2023-07-16T00:31:11;18.30;1.00
1888;DHT22;944;51.574;6.980;2023-07-16T00:33:43;18.20;99.90
1888;DHT22;944;51.574;6.980;2023-07-16T00:36:18;18.20;1.00
1888;DHT22;944;51.574;6.980;2023-07-16T00:39:23;18.10;1.00
1888;DHT22;944;51.574;6.980;2023-07-16T00:43:42;18.20;28.10
1888;DHT22;944;51.574;6.980;2023-07-16T00:46:03;18.30;99.90
1888;DHT22;944;51.574;6.980;2023-07-16T00:48:32;18.10;1.00
1888;DHT22;944;51.574;6.980;2023-07-16T00:51:16;18.10;19.30
1888;DHT22;944;51.574;6.980;2023-07-16T00:53:45;18.10;1.00
1888;DHT22;944;51.574;6.980;2023-07-16T00:56:39;18.00;1.00
1888;DHT22;944;51.574;6.980;2023-07-16T00:59:32;17.80;99.90
1888;DHT22;944;51.574;6.980;2023-07-16T01:02:15;18.00;99.90
1888;DHT22;944;51.574;6.980;2023-07-16T01:04:43;17.90;99.90
1888;DHT22;944;51.574;6.980;2023-07-16T01:07:25;17.80;1.00
1888;DHT22;944;51.574;6.980;2023-07-16T01:10:07;17.90;99.90
1888;DHT22;944;51.574;6.980;2023-07-16T01:13:21;17.80;99.90
1888;DHT22;944;51.574;6.980;2023-07-16T01:16:40;17.80;99.90
1888;DHT22;944;51.574;6.980;2023-07-16T01:20:04;17.70;99.90
1888;DHT22;944;51.574;6.980;2023-07-16T01:23:59;17.60;99.90
1888;DHT22;944;51.574;6.980;2023-07-16T01:52:15;17.40;99.90
1888;DHT22;944;51.574;6.980;2023-07-16T02:15:55;17.10;99.90
1888;DHT22;944;51.574;6.980;2023-07-16T02:18:55;17.10;99.90
1888;DHT22;944;51.574;6.980;2023-07-16T02:32:17;17.00;99.90
1888;DHT22;944;51.574;6.980;2023-07-16T02:39:22;16.90;99.90
1888;DHT22;944;51.574;6.980;2023-07-16T02:42:40;16.90;99.90
1888;DHT22;944;51.574;6.980;2023-07-16T02:46:10;16.90;99.90
1888;DHT22;944;51.574;6.980;2023-07-16T02:52:53;17.00;99.90
1888;DHT22;944;51.574;6.980;2023-07-16T02:56:06;16.90;99.90
1888;DHT22;944;51.574;6.980;2023-07-16T02:58:53;17.10;99.90
1888;DHT22;944;51.574;6.980;2023-07-16T03:01:28;17.10;99.90
1888;DHT22;944;51.574;6.980;2023-07-16T03:04:20;17.00;99.90
1888;DHT22;944;51.574;6.980;2023-07-16T03:14:15;17.10;99.90
1888;DHT22;944;51.574;6.980;2023-07-16T03:16:53;17.10;99.90
1888;DHT22;944;51.574;6.980;2023-07-16T03:22:34;17.20;99.90
1888;DHT22;944;51.574;6.980;2023-07-16T03:25:10;17.30;99.90
1888;DHT22;944;51.574;6.980;2023-07-16T03:27:59;17.10;99.90
1888;DHT22;944;51.574;6.980;2023-07-16T03:30:44;17.10;99.90
1888;DHT22;944;51.574;6.980;2023-07-16T03:33:31;17.10;99.90
1888;DHT22;944;51.574;6.980;2023-07-16T03:36:05;17.10;99.90
1888;DHT22;944;51.574;6.980;2023-07-16T03:38:45;17.00;99.90
1888;DHT22;944;51.574;6.980;2023-07-16T03:41:28;17.00;99.90
1888;DHT22;944;51.574;6.980;2023-07-16T03:43:57;17.00;99.90
1888;DHT22;944;51.574;6.980;2023-07-16T03:46:28;17.00;99.90
1888;DHT22;944;51.574;6.980;2023-07-16T03:49:06;17.00;99.90
1888;DHT22;944;51.574;6.980;2023-07-16T03:51:38;17.00;99.90
1888;DHT22;944;51.574;6.980;2023-07-16T03:54:05;16.90;99.90
1888;DHT22;944;51.574;6.980;2023-07-16T03:56:40;17.10;99.90
1888;DHT22;944;51.574;6.980;2023-07-16T03:59:13;17.00;99.90
1888;DHT22;944;51.574;6.980;2023-07-16T04:01:44;16.90;99.90
1888;DHT22;944;51.574;6.980;2023-07-16T04:04:14;16.90;99.90
1888;DHT22;944;51.574;6.980;2023-07-16T04:06:50;16.80;99.90
1888;DHT22;944;51.574;6.980;2023-07-16T04:09:30;16.90;99.90
1888;DHT22;944;51.574;6.980;2023-07-16T04:12:03;17.00;12.20
1888;DHT22;944;51.574;6.980;2023-07-16T04:14:38;17.00;25.30
1888;DHT22;944;51.574;6.980;2023-07-16T04:17:18;16.90;1.00
1888;DHT22;944;51.574;6.980;2023-07-16T04:19:52;16.90;99.90
1888;DHT22;944;51.574;6.980;2023-07-16T04:22:22;17.00;99.90
1888;DHT22;944;51.574;6.980;2023-07-16T04:25:00;17.00;99.90
1888;DHT22;944;51.574;6.980;2023-07-16T04:27:33;16.90;99.90
1888;DHT22;944;51.574;6.980;2023-07-16T04:30:07;16.80;99.90
1888;DHT22;944;51.574;6.980;2023-07-16T04:32:37;17.00;99.90
1888;DHT22;944;51.574;6.980;2023-07-16T04:35:07;17.00;99.90
1888;DHT22;944;51.574;6.980;2023-07-16T04:37:35;17.00;99.90
1888;DHT22;944;51.574;6.980;2023-07-16T04:40:05;17.00;99.90
1888;DHT22;944;51.574;6.980;2023-07-16T04:42:40;17.00;99.10
1888;DHT22;944;51.574;6.980;2023-07-16T04:45:15;17.00;99.90
1888;DHT22;944;51.574;6.980;2023-07-16T04:47:50;17.00;99.90
1888;DHT22;944;51.574;6.980;2023-07-16T04:50:24;17.00;93.20
1888;DHT22;944;51.574;6.980;2023-07-16T04:52:51;17.00;99.90
1888;DHT22;944;51.574;6.980;2023-07-16T04:55:39;17.10;99.90
1888;DHT22;944;51.574;6.980;2023-07-16T04:58:11;17.10;1.00
1888;DHT22;944;51.574;6.980;2023-07-16T05:00:40;17.10;1.00
1888;DHT22;944;51.574;6.980;2023-07-16T05:03:08;17.20;1.00
1888;DHT22;944;51.574;6.980;2023-07-16T05:05:35;17.10;1.00
1888;DHT22;944;51.574;6.980;2023-07-16T05:08:03;17.20;1.00
1888;DHT22;944;51.574;6.980;2023-07-16T05:10:34;17.30;1.30
1888;DHT22;944;51.574;6.980;2023-07-16T05:13:06;17.30;1.00
1888;DHT22;944;51.574;6.980;2023-07-16T05:15:43;17.30;1.00
1888;DHT22;944;51.574;6.980;2023-07-16T05:18:10;17.30;1.00
1888;DHT22;944;51.574;6.980;2023-07-16T05:20:37;17.40;1.00
1888;DHT22;944;51.574;6.980;2023-07-16T05:23:05;17.40;1.00
1888;DHT22;944;51.574;6.980;2023-07-16T05:25:32;17.50;1.00
1888;DHT22;944;51.574;6.980;2023-07-16T05:28:02;17.60;99.90
1888;DHT22;944;51.574;6.980;2023-07-16T05:30:42;17.50;1.00
1888;DHT22;944;51.574;6.980;2023-07-16T05:33:09;17.60;91.00
1888;DHT22;944;51.574;6.980;2023-07-16T05:35:37;17.40;99.90
1888;DHT22;944;51.574;6.980;2023-07-16T05:38:07;17.60;99.90
1888;DHT22;944;51.574;6.980;2023-07-16T05:40:39;17.70;99.90
1888;DHT22;944;51.574;6.980;2023-07-16T05:43:08;17.70;99.90
1888;DHT22;944;51.574;6.980;2023-07-16T05:45:37;17.80;99.90
1888;DHT22;944;51.574;6.980;2023-07-16T05:48:08;17.80;99.90
1888;DHT22;944;51.574;6.980;2023-07-16T05:50:38;17.80;99.90
1888;DHT22;944;51.574;6.980;2023-07-16T05:53:07;17.90;99.90
1888;DHT22;944;51.574;6.980;2023-07-16T05:55:36;18.10;99.90
1888;DHT22;944;51.574;6.980;2023-07-16T05:58:03;18.10;99.90
1888;DHT22;944;51.574;6.980;2023-07-16T06:00:33;18.30;1.00
1888;DHT22;944;51.574;6.980;2023-07-16T06:03:09;18.60;99.90
1888;DHT22;944;51.574;6.980;2023-07-16T06:05:37;19.00;99.90
1888;DHT22;944;51.574;6.980;2023-07-16T06:08:09;19.40;99.90
1888;DHT22;944;51.574;6.980;2023-07-16T06:10:44;19.60;99.90
1888;DHT22;944;51.574;6.980;2023-07-16T06:13:20;19.70;99.90
1888;DHT22;944;51.574;6.980;2023-07-16T06:15:49;19.70;1.00
1888;DHT22;944;51.574;6.980;2023-07-16T06:18:22;20.10;96.10
1888;DHT22;944;51.574;6.980;2023-07-16T06:21:01;20.40;99.90
1888;DHT22;944;51.574;6.980;2023-07-16T06:23:30;20.50;99.90
1888;DHT22;944;51.574;6.980;2023-07-16T06:26:06;20.20;99.90
1888;DHT22;944;51.574;6.980;2023-07-16T06:28:35;20.00;99.90
1888;DHT22;944;51.574;6.980;2023-07-16T06:31:20;20.30;99.90
1888;DHT22;944;51.574;6.980;2023-07-16T06:34:02;20.50;99.90
1888;DHT22;944;51.574;6.980;2023-07-16T06:36:58;20.60;99.90
1888;DHT22;944;51.574;6.980;2023-07-16T06:39:33;20.40;99.90
1888;DHT22;944;51.574;6.980;2023-07-16T06:42:02;20.40;99.90
1888;DHT22;944;51.574;6.980;2023-07-16T06:44:31;20.70;99.90
1888;DHT22;944;51.574;6.980;2023-07-16T06:46:58;20.80;99.90
1888;DHT22;944;51.574;6.980;2023-07-16T06:49:31;20.60;99.90
1888;DHT22;944;51.574;6.980;2023-07-16T06:52:00;20.70;99.90
1888;DHT22;944;51.574;6.980;2023-07-16T06:54:36;21.00;99.90
1888;DHT22;944;51.574;6.980;2023-07-16T06:57:08;21.20;99.90
1888;DHT22;944;51.574;6.980;2023-07-16T06:59:36;21.10;99.90
1888;DHT22;944;51.574;6.980;2023-07-16T07:02:03;21.10;99.90
1888;DHT22;944;51.574;6.980;2023-07-16T07:04:35;21.00;99.90
1888;DHT22;944;51.574;6.980;2023-07-16T07:07:09;21.00;99.90
1888;DHT22;944;51.574;6.980;2023-07-16T07:09:54;21.20;99.90
1888;DHT22;944;51.574;6.980;2023-07-16T07:12:27;21.10;99.90
1888;DHT22;944;51.574;6.980;2023-07-16T07:14:56;20.70;99.90
1888;DHT22;944;51.574;6.980;2023-07-16T07:17:27;20.40;99.90
1888;DHT22;944;51.574;6.980;2023-07-16T07:20:08;20.10;99.90
1888;DHT22;944;51.574;6.980;2023-07-16T07:22:38;20.10;99.90
1888;DHT22;944;51.574;6.980;2023-07-16T07:25:09;20.10;99.90
1888;DHT22;944;51.574;6.980;2023-07-16T07:27:39;20.00;99.90
1888;DHT22;944;51.574;6.980;2023-07-16T07:33:42;20.10;99.90
1888;DHT22;944;51.574;6.980;2023-07-16T07:36:21;20.40;99.90
1888;DHT22;944;51.574;6.980;2023-07-16T07:38:59;20.50;99.90
1888;DHT22;944;51.574;6.980;2023-07-16T07:41:33;21.00;99.90
1888;DHT22;944;51.574;6.980;2023-07-16T07:44:01;20.90;99.90
1888;DHT22;944;51.574;6.980;2023-07-16T07:46:28;21.30;99.90
1888;DHT22;944;51.574;6.980;2023-07-16T07:49:05;21.20;99.90
1888;DHT22;944;51.574;6.980;2023-07-16T07:51:45;21.10;99.90
1888;DHT22;944;51.574;6.980;2023-07-16T07:57:14;21.20;99.90
1888;DHT22;944;51.574;6.980;2023-07-16T07:59:48;21.00;99.90
1888;DHT22;944;51.574;6.980;2023-07-16T08:02:25;21.10;99.90
1888;DHT22;944;51.574;6.980;2023-07-16T08:04:57;21.00;99.90
1888;DHT22;944;51.574;6.980;2023-07-16T08:07:26;21.40;99.90
1888;DHT22;944;51.574;6.980;2023-07-16T08:09:54;21.80;99.90
1888;DHT22;944;51.574;6.980;2023-07-16T08:12:30;22.20;99.90
1888;DHT22;944;51.574;6.980;2023-07-16T08:14:58;22.40;99.90
1888;DHT22;944;51.574;6.980;2023-07-16T08:17:34;22.40;99.90
1888;DHT22;944;51.574;6.980;2023-07-16T08:20:06;22.40;99.90
1888;DHT22;944;51.574;6.980;2023-07-16T08:22:45;21.90;99.90
1888;DHT22;944;51.574;6.980;2023-07-16T08:25:12;22.00;99.90
1888;DHT22;944;51.574;6.980;2023-07-16T08:27:51;21.90;99.90
1888;DHT22;944;51.574;6.980;2023-07-16T08:30:25;22.10;99.90
1888;DHT22;944;51.574;6.980;2023-07-16T08:32:57;22.50;99.90
1888;DHT22;944;51.574;6.980;2023-07-16T08:35:58;22.70;99.90
1888;DHT22;944;51.574;6.980;2023-07-16T08:38:26;22.90;99.90
1888;DHT22;944;51.574;6.980;2023-07-16T08:41:34;23.00;99.90
1888;DHT22;944;51.574;6.980;2023-07-16T08:44:44;23.30;99.90
1888;DHT22;944;51.574;6.980;2023-07-16T08:50:38;22.80;99.90
1888;DHT22;944;51.574;6.980;2023-07-16T08:53:25;22.50;99.90
1888;DHT22;944;51.574;6.980;2023-07-16T08:56:10;22.40;99.90
1888;DHT22;944;51.574;6.980;2023-07-16T08:59:07;22.40;99.90
1888;DHT22;944;51.574;6.980;2023-07-16T09:02:02;22.60;99.90
1888;DHT22;944;51.574;6.980;2023-07-16T09:04:56;22.80;99.90
1888;DHT22;944;51.574;6.980;2023-07-16T09:11:25;22.40;99.90
1888;DHT22;944;51.574;6.980;2023-07-16T09:14:29;22.70;99.90
1888;DHT22;944;51.574;6.980;2023-07-16T09:17:31;23.00;99.90
1888;DHT22;944;51.574;6.980;2023-07-16T09:20:32;22.40;99.90
1888;DHT22;944;51.574;6.980;2023-07-16T09:23:10;22.10;99.90
1888;DHT22;944;51.574;6.980;2023-07-16T09:26:57;22.20;99.90
1888;DHT22;944;51.574;6.980;2023-07-16T09:29:53;22.30;99.90
1888;DHT22;944;51.574;6.980;2023-07-16T09:32:38;21.90;99.90
1888;DHT22;944;51.574;6.980;2023-07-16T09:35:33;21.80;99.90
1888;DHT22;944;51.574;6.980;2023-07-16T09:38:17;21.70;99.90
1888;DHT22;944;51.574;6.980;2023-07-16T09:40:52;21.60;99.90
1888;DHT22;944;51.574;6.980;2023-07-16T09:43:28;21.50;99.90
1888;DHT22;944;51.574;6.980;2023-07-16T09:46:00;21.80;99.90
1888;DHT22;944;51.574;6.980;2023-07-16T09:48:51;21.90;99.90
1888;DHT22;944;51.574;6.980;2023-07-16T09:55:09;22.20;99.90
1888;DHT22;944;51.574;6.980;2023-07-16T09:58:03;21.90;99.90
1888;DHT22;944;51.574;6.980;2023-07-16T10:00:36;21.90;99.90
1888;DHT22;944;51.574;6.980;2023-07-16T10:03:07;21.70;99.90
1888;DHT22;944;51.574;6.980;2023-07-16T10:05:40;21.90;99.90
1888;DHT22;944;51.574;6.980;2023-07-16T10:08:17;21.70;99.90
1888;DHT22;944;51.574;6.980;2023-07-16T10:10:54;21.70;99.90
1888;DHT22;944;51.574;6.980;2023-07-16T10:13:37;22.00;99.90
1888;DHT22;944;51.574;6.980;2023-07-16T10:16:23;22.10;99.90
1888;DHT22;944;51.574;6.980;2023-07-16T10:18:53;21.80;99.90
1888;DHT22;944;51.574;6.980;2023-07-16T10:21:38;21.80;99.90
1888;DHT22;944;51.574;6.980;2023-07-16T10:24:18;22.00;99.90
1888;DHT22;944;51.574;6.980;2023-07-16T10:26:51;22.10;99.90
1888;DHT22;944;51.574;6.980;2023-07-16T10:29:28;21.90;99.90
1888;DHT22;944;51.574;6.980;2023-07-16T10:32:18;22.00;99.90
1888;DHT22;944;51.574;6.980;2023-07-16T10:34:58;22.00;99.90
1888;DHT22;944;51.574;6.980;2023-07-16T10:41:10;22.00;99.90
1888;DHT22;944;51.574;6.980;2023-07-16T10:43:40;21.90;99.90
1888;DHT22;944;51.574;6.980;2023-07-16T10:46:45;21.80;99.90
1888;DHT22;944;51.574;6.980;2023-07-16T10:52:37;22.20;99.90
1888;DHT22;944;51.574;6.980;2023-07-16T10:55:29;22.30;99.90
1888;DHT22;944;51.574;6.980;2023-07-16T10:58:26;22.30;99.90
1888;DHT22;944;51.574;6.980;2023-07-16T11:01:11;22.10;99.90
1888;DHT22;944;51.574;6.980;2023-07-16T11:04:39;22.20;99.90
1888;DHT22;944;51.574;6.980;2023-07-16T11:07:34;22.40;99.90
1888;DHT22;944;51.574;6.980;2023-07-16T11:10:17;22.50;99.90
1888;DHT22;944;51.574;6.980;2023-07-16T11:12:57;22.60;99.90
1888;DHT22;944;51.574;6.980;2023-07-16T11:16:05;22.50;99.90
1888;DHT22;944;51.574;6.980;2023-07-16T11:19:08;22.40;99.90
1888;DHT22;944;51.574;6.980;2023-07-16T11:22:26;22.60;99.90
1888;DHT22;944;51.574;6.980;2023-07-16T11:25:39;22.40;99.90
1888;DHT22;944;51.574;6.980;2023-07-16T11:28:44;22.70;99.90
1888;DHT22;944;51.574;6.980;2023-07-16T11:31:27;22.50;99.90
1888;DHT22;944;51.574;6.980;2023-07-16T11:34:04;22.50;99.90
1888;DHT22;944;51.574;6.980;2023-07-16T11:36:48;22.50;99.90
1888;DHT22;944;51.574;6.980;2023-07-16T11:39:29;22.30;99.90
1888;DHT22;944;51.574;6.980;2023-07-16T11:42:08;22.30;99.90
1888;DHT22;944;51.574;6.980;2023-07-16T11:44:50;22.50;99.90
1888;DHT22;944;51.574;6.980;2023-07-16T11:47:25;22.50;99.90
1888;DHT22;944;51.574;6.980;2023-07-16T11:50:02;22.50;99.90
1888;DHT22;944;51.574;6.980;2023-07-16T11:52:54;22.30;99.90
1888;DHT22;944;51.574;6.980;2023-07-16T11:55:32;22.50;99.90
1888;DHT22;944;51.574;6.980;2023-07-16T11:58:13;22.60;99.90
1888;DHT22;944;51.574;6.980;2023-07-16T12:00:48;22.50;99.90
1888;DHT22;944;51.574;6.980;2023-07-16T12:03:16;22.60;99.90
1888;DHT22;944;51.574;6.980;2023-07-16T12:08:32;22.80;99.90
1888;DHT22;944;51.574;6.980;2023-07-16T12:11:14;23.10;99.90
1888;DHT22;944;51.574;6.980;2023-07-16T12:13:44;23.10;99.90
1888;DHT22;944;51.574;6.980;2023-07-16T12:16:25;22.90;99.90
1888;DHT22;944;51.574;6.980;2023-07-16T12:19:00;23.00;99.90
1888;DHT22;944;51.574;6.980;2023-07-16T12:21:32;23.00;99.90
1888;DHT22;944;51.574;6.980;2023-07-16T12:24:13;23.10;99.90
1888;DHT22;944;51.574;6.980;2023-07-16T12:26:44;23.20;99.90
1888;DHT22;944;51.574;6.980;2023-07-16T12:29:14;23.30;99.90
1888;DHT22;944;51.574;6.980;2023-07-16T12:31:46;23.10;99.90
1888;DHT22;944;51.574;6.980;2023-07-16T12:34:18;22.90;99.90
1888;DHT22;944;51.574;6.980;2023-07-16T12:36:58;22.80;99.90
1888;DHT22;944;51.574;6.980;2023-07-16T12:39:35;22.80;99.90
1888;DHT22;944;51.574;6.980;2023-07-16T12:42:06;22.70;99.90
1888;DHT22;944;51.574;6.980;2023-07-16T12:44:41;22.60;99.90
1888;DHT22;944;51.574;6.980;2023-07-16T12:47:09;22.80;99.90
1888;DHT22;944;51.574;6.980;2023-07-16T12:49:39;23.00;99.90
1888;DHT22;944;51.574;6.980;2023-07-16T12:52:19;23.20;99.90
1888;DHT22;944;51.574;6.980;2023-07-16T12:54:53;23.10;99.90
1888;DHT22;944;51.574;6.980;2023-07-16T12:57:26;23.10;99.90
1888;DHT22;944;51.574;6.980;2023-07-16T12:59:56;23.10;99.90
1888;DHT22;944;51.574;6.980;2023-07-16T13:02:25;23.40;99.90
1888;DHT22;944;51.574;6.980;2023-07-16T13:04:54;23.40;99.90
1888;DHT22;944;51.574;6.980;2023-07-16T13:07:26;23.80;99.90
1888;DHT22;944;51.574;6.980;2023-07-16T13:10:05;24.00;99.90
1888;DHT22;944;51.574;6.980;2023-07-16T13:13:03;24.20;99.90
1888;DHT22;944;51.574;6.980;2023-07-16T13:16:02;24.20;99.90
1888;DHT22;944;51.574;6.980;2023-07-16T13:18:53;24.20;99.90
1888;DHT22;944;51.574;6.980;2023-07-16T13:21:31;24.10;99.90
1888;DHT22;944;51.574;6.980;2023-07-16T13:24:02;24.30;99.90
1888;DHT22;944;51.574;6.980;2023-07-16T13:27:25;23.90;99.90
1888;DHT22;944;51.574;6.980;2023-07-16T13:30:24;24.00;99.90
1888;DHT22;944;51.574;6.980;2023-07-16T13:33:18;24.10;99.90
1888;DHT22;944;51.574;6.980;2023-07-16T13:36:05;24.10;99.90
1888;DHT22;944;51.574;6.980;2023-07-16T13:38:53;24.20;99.90
1888;DHT22;944;51.574;6.980;2023-07-16T13:41:32;23.90;99.90
1888;DHT22;944;51.574;6.980;2023-07-16T13:44:10;23.70;99.90
1888;DHT22;944;51.574;6.980;2023-07-16T13:46:41;23.70;99.90
1888;DHT22;944;51.574;6.980;2023-07-16T13:49:31;23.50;99.90
1888;DHT22;944;51.574;6.980;2023-07-16T13:52:03;23.70;99.90
1888;DHT22;944;51.574;6.980;2023-07-16T13:54:40;24.00;99.90
1888;DHT22;944;51.574;6.980;2023-07-16T13:57:22;23.90;99.90
1888;DHT22;944;51.574;6.980;2023-07-16T14:00:06;24.10;99.90
1888;DHT22;944;51.574;6.980;2023-07-16T14:02:48;23.90;99.90
1888;DHT22;944;51.574;6.980;2023-07-16T14:05:42;23.80;99.90
1888;DHT22;944;51.574;6.980;2023-07-16T14:08:20;23.90;99.90
1888;DHT22;944;51.574;6.980;2023-07-16T14:11:03;23.80;99.90
1888;DHT22;944;51.574;6.980;2023-07-16T14:13:44;23.80;99.90
1888;DHT22;944;51.574;6.980;2023-07-16T14:16:25;23.80;99.90
1888;DHT22;944;51.574;6.980;2023-07-16T14:19:06;23.80;99.90
1888;DHT22;944;51.574;6.980;2023-07-16T14:21:35;24.00;99.90
1888;DHT22;944;51.574;6.980;2023-07-16T14:24:06;24.20;99.90
1888;DHT22;944;51.574;6.980;2023-07-16T14:26:35;24.00;99.90
1888;DHT22;944;51.574;6.980;2023-07-16T14:29:05;23.90;99.90
1888;DHT22;944;51.574;6.980;2023-07-16T14:31:43;23.80;99.90
1888;DHT22;944;51.574;6.980;2023-07-16T14:34:12;24.00;99.90
1888;DHT22;944;51.574;6.980;2023-07-16T14:36:41;24.10;99.90
1888;DHT22;944;51.574;6.980;2023-07-16T14:39:17;24.10;99.90
1888;DHT22;944;51.574;6.980;2023-07-16T14:42:10;23.90;99.90
1888;DHT22;944;51.574;6.980;2023-07-16T14:44:50;23.90;99.90
1888;DHT22;944;51.574;6.980;2023-07-16T14:47:17;24.00;99.90
1888;DHT22;944;51.574;6.980;2023-07-16T14:53:36;24.40;99.90
1888;DHT22;944;51.574;6.980;2023-07-16T14:56:11;24.40;99.90
1888;DHT22;944;51.574;6.980;2023-07-16T14:58:42;24.10;99.90
1888;DHT22;944;51.574;6.980;2023-07-16T15:01:11;24.10;99.90
1888;DHT22;944;51.574;6.980;2023-07-16T15:03:52;24.30;99.90
1888;DHT22;944;51.574;6.980;2023-07-16T15:06:28;24.30;99.90
1888;DHT22;944;51.574;6.980;2023-07-16T15:09:03;24.20;99.90
1888;DHT22;944;51.574;6.980;2023-07-16T15:11:45;24.10;99.90
1888;DHT22;944;51.574;6.980;2023-07-16T15:21:14;23.80;99.90
1888;DHT22;944;51.574;6.980;2023-07-16T15:24:38;24.00;99.90
1888;DHT22;944;51.574;6.980;2023-07-16T15:28:00;24.10;99.90
1888;DHT22;944;51.574;6.980;2023-07-16T15:31:00;24.30;99.90
1888;DHT22;944;51.574;6.980;2023-07-16T15:34:26;24.30;99.90
1888;DHT22;944;51.574;6.980;2023-07-16T15:47:54;24.30;99.90
1888;DHT22;944;51.574;6.980;2023-07-16T15:50:56;24.00;99.90
1888;DHT22;944;51.574;6.980;2023-07-16T15:54:33;24.10;99.90
1888;DHT22;944;51.574;6.980;2023-07-16T15:57:56;24.20;99.90
1888;DHT22;944;51.574;6.980;2023-07-16T16:00:59;24.60;99.90
1888;DHT22;944;51.574;6.980;2023-07-16T16:10:52;24.70;99.90
1888;DHT22;944;51.574;6.980;2023-07-16T16:20:51;24.40;99.90
1888;DHT22;944;51.574;6.980;2023-07-16T16:23:27;24.50;99.90
1888;DHT22;944;51.574;6.980;2023-07-16T16:26:32;24.20;99.90
1888;DHT22;944;51.574;6.980;2023-07-16T17:08:49;23.50;99.90
1888;DHT22;944;51.574;6.980;2023-07-16T17:15:43;23.40;99.90
1888;DHT22;944;51.574;6.980;2023-07-16T17:18:47;23.40;99.90
1888;DHT22;944;51.574;6.980;2023-07-16T21:18:58;20.30;99.90
1888;DHT22;944;51.574;6.980;2023-07-16T21:39:09;20.00;99.90
1888;DHT22;944;51.574;6.980;2023-07-16T21:49:37;19.90;99.90
1888;DHT22;944;51.574;6.980;2023-07-16T21:52:41;19.80;99.90
1888;DHT22;944;51.574;6.980;2023-07-16T21:56:05;19.60;99.90
1888;DHT22;944;51.574;6.980;2023-07-16T21:59:16;19.60;99.90
1888;DHT22;944;51.574;6.980;2023-07-16T22:06:03;19.40;99.90
1888;DHT22;944;51.574;6.980;2023-07-16T22:11:34;19.30;99.90
1888;DHT22;944;51.574;6.980;2023-07-16T22:20:03;19.30;99.90
1888;DHT22;944;51.574;6.980;2023-07-16T22:23:20;19.30;99.90
1888;DHT22;944;51.574;6.980;2023-07-16T22:26:41;19.20;99.90
1888;DHT22;944;51.574;6.980;2023-07-16T22:29:52;19.30;99.90
1888;DHT22;944;51.574;6.980;2023-07-16T22:37:36;19.10;99.90
1888;DHT22;944;51.574;6.980;2023-07-16T22:44:36;19.20;99.90
1888;DHT22;944;51.574;6.980;2023-07-16T22:48:06;19.20;99.90
1888;DHT22;944;51.574;6.980;2023-07-16T23:28:09;19.10;99.90
1888;DHT22;944;51.574;6.980;2023-07-16T23:31:15;19.20;99.90
1888;DHT22;944;51.574;6.980;2023-07-16T23:50:15;18.40;99.90
